createdAt,value
2018-12-15T00:01:29.030Z,0.60
2018-12-15T00:04:04.665Z,0.60
2018-12-15T00:07:00.196Z,0.60
2018-12-15T00:09:33.953Z,0.60
2018-12-15T00:12:15.621Z,0.70
2018-12-15T00:14:49.137Z,0.70
2018-12-15T00:17:28.650Z,0.70
2018-12-15T00:20:02.376Z,0.60
2018-12-15T00:22:36.362Z,0.60
2018-12-15T00:25:16.011Z,0.60
2018-12-15T00:27:49.544Z,0.70
2018-12-15T00:30:22.993Z,0.70
2018-12-15T00:32:56.943Z,0.70
2018-12-15T00:35:33.356Z,0.70
2018-12-15T00:38:07.165Z,0.70
2018-12-15T00:40:40.372Z,0.80
2018-12-15T00:43:13.558Z,0.70
2018-12-15T00:45:51.717Z,0.80
2018-12-15T00:48:25.710Z,0.70
2018-12-15T00:50:58.809Z,0.70
2018-12-15T00:53:40.601Z,0.70
2018-12-15T00:56:14.002Z,0.80
2018-12-15T00:58:47.317Z,0.70
2018-12-15T01:01:23.519Z,0.70
2018-12-15T01:04:00.708Z,0.80
2018-12-15T01:06:36.570Z,0.80
2018-12-15T01:09:12.241Z,0.80
2018-12-15T01:11:53.941Z,0.80
2018-12-15T01:14:27.155Z,0.80
2018-12-15T01:17:07.269Z,0.70
2018-12-15T01:19:40.854Z,0.70
2018-12-15T01:22:12.911Z,0.70
2018-12-15T01:24:48.265Z,0.70
2018-12-15T01:27:28.475Z,0.70
2018-12-15T01:30:02.573Z,0.70
2018-12-15T01:32:33.682Z,0.70
2018-12-15T01:35:05.170Z,0.80
2018-12-15T01:37:45.339Z,0.70
2018-12-15T01:40:18.937Z,0.70
2018-12-15T01:42:58.310Z,0.70
2018-12-15T01:45:32.086Z,0.70
2018-12-15T01:48:07.226Z,0.70
2018-12-15T01:50:40.446Z,0.70
2018-12-15T01:53:15.749Z,0.70
2018-12-15T01:55:47.575Z,0.70
2018-12-15T01:58:21.828Z,0.70
2018-12-15T02:00:55.041Z,0.70
2018-12-15T02:03:27.277Z,0.70
2018-12-15T02:06:00.529Z,0.70
2018-12-15T02:08:33.650Z,0.80
2018-12-15T02:11:08.830Z,0.80
2018-12-15T02:13:42.283Z,0.80
2018-12-15T02:16:17.802Z,0.80
2018-12-15T02:18:51.603Z,0.80
2018-12-15T02:21:25.049Z,0.90
2018-12-15T02:24:05.150Z,0.90
2018-12-15T02:26:38.842Z,0.80
2018-12-15T02:29:14.510Z,0.90
2018-12-15T02:31:48.273Z,0.80
2018-12-15T02:34:22.273Z,0.80
2018-12-15T02:36:55.519Z,0.90
2018-12-15T02:39:29.468Z,0.90
2018-12-15T02:42:07.614Z,0.80
2018-12-15T02:44:45.588Z,0.80
2018-12-15T02:47:23.522Z,0.80
2018-12-15T02:49:55.404Z,0.80
2018-12-15T02:52:28.505Z,0.70
2018-12-15T02:55:01.677Z,0.70
2018-12-15T02:57:35.022Z,0.60
2018-12-15T03:00:09.019Z,0.60
2018-12-15T03:02:44.267Z,0.60
2018-12-15T03:05:17.608Z,0.60
2018-12-15T03:07:50.834Z,0.60
2018-12-15T03:10:26.106Z,0.60
2018-12-15T03:13:04.199Z,0.60
2018-12-15T03:15:37.811Z,0.60
2018-12-15T03:18:10.997Z,0.70
2018-12-15T03:21:06.976Z,0.60
2018-12-15T03:23:44.610Z,0.70
2018-12-15T03:26:25.031Z,0.70
2018-12-15T03:28:58.684Z,0.70
2018-12-15T03:31:36.298Z,0.70
2018-12-15T03:34:16.036Z,0.70
2018-12-15T03:36:49.773Z,0.70
2018-12-15T03:39:23.597Z,0.60
2018-12-15T03:41:56.798Z,0.60
2018-12-15T03:44:29.862Z,0.50
2018-12-15T03:47:03.742Z,0.50
2018-12-15T03:49:37.141Z,0.40
2018-12-15T03:52:11.118Z,0.50
2018-12-15T03:54:44.341Z,0.50
2018-12-15T03:57:23.642Z,0.50
2018-12-15T03:59:57.490Z,0.50
2018-12-15T04:02:29.523Z,0.50
2018-12-15T04:05:02.597Z,0.50
2018-12-15T04:07:37.981Z,0.60
2018-12-15T04:10:12.125Z,0.60
2018-12-15T04:12:45.897Z,0.60
2018-12-15T04:15:19.729Z,0.60
2018-12-15T04:17:54.507Z,0.60
2018-12-15T04:20:27.718Z,0.60
2018-12-15T04:23:00.962Z,0.60
2018-12-15T04:25:34.343Z,0.60
2018-12-15T04:28:09.862Z,0.60
2018-12-15T04:30:45.868Z,0.50
2018-12-15T04:33:19.613Z,0.50
2018-12-15T04:35:54.678Z,0.50
2018-12-15T04:38:34.913Z,0.50
2018-12-15T04:41:09.037Z,0.50
2018-12-15T04:43:43.029Z,0.40
2018-12-15T04:46:16.215Z,0.40
2018-12-15T04:48:50.199Z,0.50
2018-12-15T04:51:24.126Z,0.50
2018-12-15T04:54:03.772Z,0.50
2018-12-15T04:56:37.545Z,0.50
2018-12-15T04:59:11.694Z,0.50
2018-12-15T05:19:37.799Z,0.40
2018-12-15T05:24:43.395Z,0.40
2018-12-15T05:27:25.479Z,0.40
2018-12-15T05:30:00.900Z,0.40
2018-12-15T05:32:36.789Z,0.50
2018-12-15T05:35:10.906Z,0.50
2018-12-15T05:37:47.237Z,0.50
2018-12-15T05:40:20.977Z,0.50
2018-12-15T05:42:54.293Z,0.60
2018-12-15T05:45:27.551Z,0.60
2018-12-15T05:48:01.233Z,0.60
2018-12-15T05:50:36.713Z,0.60
2018-12-15T05:53:12.090Z,0.60
2018-12-15T05:55:48.312Z,0.60
2018-12-15T05:58:27.642Z,0.60
2018-12-15T06:01:05.725Z,0.60
2018-12-15T06:03:37.525Z,0.60
2018-12-15T06:06:10.740Z,0.60
2018-12-15T06:08:46.261Z,0.60
2018-12-15T06:11:24.442Z,0.60
2018-12-15T06:14:04.115Z,0.60
2018-12-15T06:16:44.054Z,0.60
2018-12-15T06:19:18.179Z,0.60
2018-12-15T06:21:50.565Z,0.60
2018-12-15T06:24:25.918Z,0.70
2018-12-15T06:27:08.382Z,0.70
2018-12-15T06:29:41.995Z,0.70
2018-12-15T06:32:13.566Z,0.70
2018-12-15T06:34:48.456Z,0.70
2018-12-15T06:37:21.979Z,0.70
2018-12-15T06:39:55.567Z,0.70
2018-12-15T06:42:31.206Z,0.70
2018-12-15T06:45:13.894Z,0.70
2018-12-15T06:47:47.328Z,0.70
2018-12-15T06:50:23.090Z,0.80
2018-12-15T06:52:59.213Z,0.70
2018-12-15T06:55:39.085Z,0.70
2018-12-15T06:58:15.257Z,0.70
2018-12-15T07:00:48.372Z,0.70
2018-12-15T07:03:23.998Z,0.80
2018-12-15T07:05:56.816Z,0.60
2018-12-15T07:08:30.305Z,0.60
2018-12-15T07:11:10.272Z,0.70
2018-12-15T07:13:42.039Z,0.70
2018-12-15T07:16:13.504Z,0.70
2018-12-15T07:18:47.351Z,0.70
2018-12-15T07:21:21.165Z,0.70
2018-12-15T07:23:54.117Z,0.70
2018-12-15T07:26:27.583Z,0.70
2018-12-15T07:29:01.217Z,0.80
2018-12-15T07:31:33.216Z,0.80
2018-12-15T07:34:06.834Z,0.90
2018-12-15T07:36:46.384Z,0.80
2018-12-15T07:39:20.339Z,0.90
2018-12-15T07:42:00.138Z,0.90
2018-12-15T07:44:37.468Z,0.90
2018-12-15T07:47:18.507Z,1.00
2018-12-15T07:49:51.780Z,0.90
2018-12-15T07:52:31.920Z,1.00
2018-12-15T07:55:12.253Z,1.00
2018-12-15T07:57:48.413Z,1.10
2018-12-15T08:00:20.307Z,1.10
2018-12-15T08:02:59.888Z,1.10
2018-12-15T08:05:36.063Z,1.20
2018-12-15T08:08:10.302Z,1.20
2018-12-15T08:12:56.212Z,1.30
2018-12-15T08:15:28.977Z,1.30
2018-12-15T08:18:02.069Z,1.40
2018-12-15T08:20:37.846Z,1.50
2018-12-15T08:23:17.291Z,1.50
2018-12-15T08:25:52.649Z,1.50
2018-12-15T08:28:23.876Z,1.50
2018-12-15T08:30:59.793Z,1.60
2018-12-15T08:33:38.200Z,1.60
2018-12-15T08:36:14.271Z,1.60
2018-12-15T08:38:50.255Z,1.70
2018-12-15T08:41:21.283Z,1.70
2018-12-15T08:43:54.849Z,1.80
2018-12-15T08:46:34.657Z,1.80
2018-12-15T08:49:07.841Z,1.80
2018-12-15T08:51:39.732Z,1.80
2018-12-15T08:54:13.818Z,1.80
2018-12-15T08:56:53.613Z,1.90
2018-12-15T08:59:27.671Z,1.90
2018-12-15T09:02:04.011Z,1.90
2018-12-15T09:04:42.315Z,1.90
2018-12-15T09:07:21.907Z,1.90
2018-12-15T09:09:57.405Z,2.00
2018-12-15T09:12:29.152Z,2.00
2018-12-15T09:15:02.701Z,2.00
2018-12-15T09:17:42.301Z,2.10
2018-12-15T09:20:16.056Z,2.10
2018-12-15T09:22:56.397Z,2.10
2018-12-15T09:25:31.741Z,2.00
2018-12-15T09:28:05.461Z,2.10
2018-12-15T09:30:38.650Z,2.00
2018-12-15T09:33:18.550Z,2.10
2018-12-15T09:35:52.405Z,2.10
2018-12-15T09:38:25.827Z,2.20
2018-12-15T09:41:00.360Z,2.20
2018-12-15T09:43:34.041Z,2.30
2018-12-15T09:46:09.444Z,2.30
2018-12-15T09:48:44.932Z,2.30
2018-12-15T09:51:18.929Z,2.30
2018-12-15T09:53:53.046Z,2.30
2018-12-15T09:56:32.636Z,2.30
2018-12-15T09:59:06.606Z,2.30
2018-12-15T10:01:48.547Z,2.30
2018-12-15T10:04:24.296Z,2.20
2018-12-15T10:07:02.471Z,2.20
2018-12-15T10:09:36.484Z,2.20
2018-12-15T10:12:09.815Z,2.10
2018-12-15T10:14:51.833Z,2.10
2018-12-15T10:17:33.689Z,2.10
2018-12-15T10:20:07.783Z,2.20
2018-12-15T10:22:39.830Z,2.20
2018-12-15T10:25:13.302Z,2.30
2018-12-15T10:27:52.828Z,2.30
2018-12-15T10:30:33.588Z,2.40
2018-12-15T10:33:13.471Z,2.40
2018-12-15T10:35:53.816Z,2.40
2018-12-15T10:38:25.811Z,2.50
2018-12-15T10:41:01.326Z,2.50
2018-12-15T10:43:39.714Z,2.30
2018-12-15T10:46:15.844Z,2.30
2018-12-15T10:48:51.090Z,2.20
2018-12-15T10:51:31.800Z,2.10
2018-12-15T10:54:08.952Z,2.10
2018-12-15T10:56:48.375Z,2.10
2018-12-15T10:59:24.720Z,2.10
2018-12-15T11:02:03.183Z,2.10
2018-12-15T11:04:41.453Z,2.10
2018-12-15T11:07:20.941Z,2.10
2018-12-15T11:09:57.106Z,2.10
2018-12-15T11:12:37.204Z,2.20
2018-12-15T11:15:12.580Z,2.20
2018-12-15T11:17:52.789Z,2.30
2018-12-15T11:20:26.870Z,2.40
2018-12-15T11:23:06.325Z,2.50
2018-12-15T11:25:44.495Z,2.50
2018-12-15T11:28:21.776Z,2.60
2018-12-15T11:30:55.718Z,2.60
2018-12-15T11:33:29.094Z,2.70
2018-12-15T11:36:08.706Z,2.70
2018-12-15T11:38:40.546Z,2.70
2018-12-15T11:41:14.172Z,2.70
2018-12-15T11:43:49.983Z,2.70
2018-12-15T11:46:28.181Z,2.70
2018-12-15T11:49:04.479Z,2.80
2018-12-15T11:51:42.322Z,2.90
2018-12-15T11:54:15.981Z,2.80
2018-12-15T11:56:49.832Z,2.90
2018-12-15T11:59:23.011Z,2.90
2018-12-15T12:01:56.191Z,2.90
2018-12-15T12:04:32.437Z,2.80
2018-12-15T12:07:10.229Z,2.90
2018-12-15T12:09:43.888Z,2.90
2018-12-15T12:12:19.532Z,2.90
2018-12-15T12:14:53.231Z,2.90
2018-12-15T12:17:26.614Z,2.90
2018-12-15T12:20:00.594Z,2.80
2018-12-15T12:22:33.816Z,2.80
2018-12-15T12:25:07.251Z,2.80
2018-12-15T12:27:50.957Z,2.70
2018-12-15T12:30:22.372Z,2.70
2018-12-15T12:32:59.419Z,2.70
2018-12-15T12:35:33.052Z,2.70
2018-12-15T12:38:09.351Z,2.70
2018-12-15T12:40:43.278Z,2.80
2018-12-15T12:43:16.452Z,2.80
2018-12-15T12:45:49.794Z,2.90
2018-12-15T12:48:23.926Z,2.90
2018-12-15T12:50:58.238Z,2.80
2018-12-15T12:53:30.353Z,2.70
2018-12-15T12:56:04.052Z,2.80
2018-12-15T12:58:38.084Z,2.80
2018-12-15T13:01:18.234Z,2.80
2018-12-15T13:03:51.677Z,2.80
2018-12-15T13:06:24.914Z,2.80
2018-12-15T13:08:58.264Z,2.80
2018-12-15T13:11:32.365Z,2.80
2018-12-15T13:14:13.825Z,2.70
2018-12-15T13:16:53.862Z,2.60
2018-12-15T13:19:27.627Z,2.50
2018-12-15T13:22:00.942Z,2.50
2018-12-15T13:24:34.068Z,2.50
2018-12-15T13:27:09.486Z,2.40
2018-12-15T13:29:43.266Z,2.50
2018-12-15T13:32:19.751Z,2.50
2018-12-15T13:34:53.532Z,2.40
2018-12-15T13:37:26.956Z,2.30
2018-12-15T13:39:59.989Z,2.10
2018-12-15T13:42:33.362Z,2.10
2018-12-15T13:45:07.333Z,2.10
2018-12-15T13:47:42.653Z,2.10
2018-12-15T14:10:38.953Z,1.90
2018-12-15T14:15:45.799Z,1.70
2018-12-15T14:18:18.753Z,1.70
2018-12-15T14:20:52.229Z,1.70
2018-12-15T14:23:25.458Z,1.70
2018-12-15T14:26:05.177Z,1.70
2018-12-15T14:28:36.538Z,1.70
2018-12-15T14:31:10.626Z,1.70
2018-12-15T14:33:50.897Z,1.70
2018-12-15T14:36:24.510Z,1.70
2018-12-15T14:38:57.701Z,1.70
2018-12-15T14:41:31.734Z,1.60
2018-12-15T14:44:07.209Z,1.60
2018-12-15T14:46:40.916Z,1.50
2018-12-15T14:49:14.223Z,1.50
2018-12-15T14:51:45.521Z,1.40
2018-12-15T14:54:19.448Z,1.40
2018-12-15T14:56:53.754Z,1.30
2018-12-15T14:59:27.060Z,1.30
2018-12-15T15:02:00.949Z,1.30
2018-12-15T15:04:35.637Z,1.20
2018-12-15T15:07:07.005Z,1.20
2018-12-15T15:09:41.070Z,1.30
2018-12-15T15:12:15.475Z,1.30
2018-12-15T15:14:54.969Z,1.30
2018-12-15T15:45:40.242Z,1.10
2018-12-15T15:50:46.966Z,1.10
2018-12-15T15:53:21.058Z,1.20
2018-12-15T15:55:56.491Z,1.10
2018-12-15T15:58:36.621Z,1.10
2018-12-15T16:01:14.523Z,1.10
2018-12-15T16:03:48.225Z,1.00
2018-12-15T16:06:24.424Z,1.10
2018-12-15T16:08:58.394Z,1.10
2018-12-15T16:11:33.840Z,1.10
2018-12-15T16:14:11.860Z,1.10
2018-12-15T16:16:45.668Z,1.00
2018-12-15T16:19:16.741Z,1.10
2018-12-15T16:21:50.090Z,1.00
2018-12-15T16:24:23.465Z,1.10
2018-12-15T16:26:59.229Z,1.10
2018-12-15T16:29:33.113Z,1.00
2018-12-15T16:32:12.695Z,1.00
2018-12-15T16:34:46.285Z,1.00
2018-12-15T16:37:23.662Z,1.00
2018-12-15T16:39:57.593Z,1.10
2018-12-15T16:42:31.493Z,1.00
2018-12-15T16:45:06.508Z,1.10
2018-12-15T16:47:39.797Z,1.10
2018-12-15T16:50:14.366Z,1.10
2018-12-15T17:30:58.822Z,1.10
2018-12-15T17:33:32.105Z,1.10
2018-12-15T17:36:08.524Z,1.10
2018-12-15T17:38:41.901Z,1.00
2018-12-15T17:41:14.995Z,1.10
2018-12-15T17:43:48.854Z,1.00
2018-12-15T17:46:24.499Z,1.00
2018-12-15T17:48:58.224Z,0.90
2018-12-15T17:51:32.165Z,1.00
2018-12-15T17:54:10.573Z,1.00
2018-12-15T17:56:44.649Z,0.90
2018-12-15T17:59:16.733Z,0.90
2018-12-15T18:01:49.969Z,0.90
2018-12-15T18:04:29.747Z,0.90
2018-12-15T18:07:05.234Z,0.80
2018-12-15T18:09:38.332Z,0.90
2018-12-15T18:12:17.256Z,0.90
2018-12-15T18:14:57.904Z,0.80
2018-12-15T18:17:33.525Z,0.80
2018-12-15T18:20:08.347Z,0.80
2018-12-15T18:22:49.638Z,0.80
2018-12-15T18:25:25.895Z,0.80
2018-12-15T18:28:04.130Z,0.80
2018-12-15T18:30:38.252Z,0.80
2018-12-15T18:40:55.618Z,0.80
2018-12-15T18:43:35.262Z,0.80
2018-12-15T18:46:12.384Z,0.80
2018-12-15T18:48:46.357Z,0.80
2018-12-15T18:51:26.094Z,0.80
2018-12-15T18:53:59.040Z,0.80
2018-12-15T18:56:30.764Z,0.80
2018-12-15T18:59:03.887Z,0.80
2018-12-15T19:01:38.026Z,0.80
2018-12-15T19:04:19.751Z,0.90
2018-12-15T19:06:57.854Z,0.80
2018-12-15T19:09:31.787Z,0.90
2018-12-15T19:12:11.210Z,0.80
2018-12-15T19:14:50.593Z,0.80
2018-12-15T19:17:28.785Z,0.80
2018-12-15T19:20:06.305Z,0.80
2018-12-15T19:22:45.973Z,0.80
2018-12-15T19:25:22.303Z,0.80
2018-12-15T19:28:02.580Z,0.80
2018-12-15T19:30:35.812Z,0.80
2018-12-15T19:33:11.415Z,0.80
2018-12-15T19:35:50.740Z,0.80
2018-12-15T19:38:29.009Z,0.90
2018-12-15T19:41:00.941Z,0.80
2018-12-15T19:43:32.089Z,0.80
2018-12-15T19:58:39.458Z,0.80
2018-12-15T20:01:18.978Z,0.90
2018-12-15T20:03:57.266Z,0.80
2018-12-15T20:06:37.617Z,0.90
2018-12-15T20:09:10.810Z,0.90
2018-12-15T20:11:50.355Z,0.90
2018-12-15T20:14:26.559Z,0.90
2018-12-15T20:17:06.839Z,0.90
2018-12-15T20:19:42.204Z,0.80
2018-12-15T20:22:15.359Z,0.80
2018-12-15T20:24:49.078Z,0.90
2018-12-15T20:27:22.439Z,0.90
2018-12-15T20:29:53.592Z,0.80
2018-12-15T20:32:25.008Z,0.80
2018-12-15T20:35:04.900Z,0.80
2018-12-15T20:37:44.647Z,0.80
2018-12-15T20:40:16.432Z,0.80
2018-12-15T20:42:50.184Z,0.80
2018-12-15T20:45:31.801Z,0.80
2018-12-15T20:48:05.331Z,0.90
2018-12-15T20:50:38.785Z,0.80
2018-12-15T20:53:14.772Z,0.80
2018-12-15T20:55:54.965Z,0.80
2018-12-15T20:58:30.495Z,0.80
2018-12-15T21:01:04.624Z,0.80
2018-12-15T21:03:44.094Z,0.80
2018-12-15T21:06:24.231Z,0.80
2018-12-15T21:08:57.639Z,0.80
2018-12-15T21:11:30.840Z,0.80
2018-12-15T21:14:02.105Z,0.90
2018-12-15T21:16:36.563Z,0.90
2018-12-15T21:19:10.046Z,0.80
2018-12-15T21:21:49.931Z,0.80
2018-12-15T21:24:30.026Z,0.80
2018-12-15T21:27:04.236Z,0.90
2018-12-15T21:29:37.762Z,0.80
2018-12-15T21:32:11.029Z,0.80
2018-12-15T21:34:46.612Z,0.80
2018-12-15T21:37:22.053Z,0.80
2018-12-15T21:39:56.010Z,0.80
2018-12-15T21:42:35.440Z,0.80
2018-12-15T21:45:15.510Z,0.70
2018-12-15T21:47:57.408Z,0.80
2018-12-15T21:50:27.134Z,0.70
2018-12-15T21:53:06.777Z,0.80
2018-12-15T21:55:40.018Z,0.80
2018-12-15T21:58:15.628Z,0.80
2018-12-15T22:00:49.270Z,0.70
2018-12-15T22:03:31.524Z,0.80
2018-12-15T22:18:52.248Z,0.70
2018-12-15T22:21:25.729Z,0.70
2018-12-15T22:24:00.981Z,0.70
2018-12-15T22:26:32.454Z,0.70
2018-12-15T22:29:05.331Z,0.70
2018-12-15T22:31:44.934Z,0.70
2018-12-15T22:34:21.169Z,0.70
2018-12-15T22:37:03.588Z,0.70
2018-12-15T22:39:37.025Z,0.70
2018-12-15T22:42:16.596Z,0.70
2018-12-15T22:44:54.790Z,0.70
2018-12-15T22:47:32.983Z,0.70
2018-12-15T22:50:07.994Z,0.60
2018-12-15T22:52:46.194Z,0.50
2018-12-15T22:55:25.734Z,0.50
2018-12-15T22:58:03.901Z,0.40
2018-12-15T23:00:43.458Z,0.40
2018-12-15T23:03:17.351Z,0.30
2018-12-15T23:05:50.767Z,0.30
2018-12-15T23:08:32.618Z,0.30
2018-12-15T23:11:08.556Z,0.20
2018-12-15T23:13:48.675Z,0.20
2018-12-15T23:16:24.141Z,0.20
2018-12-15T23:18:57.925Z,0.20
2018-12-15T23:21:29.158Z,0.10
2018-12-15T23:26:44.636Z,0.00
2018-12-15T23:29:18.724Z,-0.10
2018-12-15T23:31:54.349Z,-0.20
2018-12-15T23:34:32.477Z,-0.40
2018-12-15T23:37:08.598Z,-0.60
2018-12-15T23:39:40.510Z,-0.70
2018-12-15T23:42:20.275Z,-0.90
2018-12-15T23:44:56.505Z,-1.00
2018-12-15T23:47:30.274Z,-1.20
2018-12-15T23:50:04.198Z,-1.20
2018-12-15T23:52:44.282Z,-1.30
2018-12-15T23:55:21.449Z,-1.50
2018-12-15T23:57:55.367Z,-1.50
